Time;durP1;ratioP1;P1;durP2;ratioP2;P2;SDS_P1;SDS_P2;PMS_P1;PMS_P2;Temp;Humidity;BMP_temperature;BMP_pressure;BME280_temperature;BME280_humidity;BME280_pressure;Samples;Min_cycle;Max_cycle;Signal;HPM_P1;HPM_P2
2023/02/09 00:01:24;;;;;;;16.83;9.60;;;0.40;26.30;;;;;;5014251;28;20389;-73
2023/02/09 00:03:50;;;;;;;16.95;9.65;;;0.40;26.50;;;;;;5029877;28;20396;-73
2023/02/09 00:06:18;;;;;;;15.93;9.68;;;0.30;27.10;;;;;;5014387;28;20758;-73
2023/02/09 00:08:44;;;;;;;16.90;9.70;;;0.30;27.40;;;;;;5013857;28;20770;-73
2023/02/09 00:14:18;;;;;;;19.50;10.07;;;0.40;26.40;;;;;;5015435;28;20508;-73
2023/02/09 00:16:44;;;;;;;18.08;10.27;;;0.40;27.50;;;;;;5014561;28;20377;-73
2023/02/09 00:19:11;;;;;;;18.25;10.10;;;0.40;29.70;;;;;;5012966;28;20393;-74
2023/02/09 00:21:36;;;;;;;19.27;10.77;;;0.50;30.90;;;;;;5014057;28;20846;-73
2023/02/09 00:24:03;;;;;;;16.85;10.65;;;0.60;30.50;;;;;;5013715;28;20463;-75
2023/02/09 00:26:28;;;;;;;18.88;10.45;;;0.60;29.80;;;;;;5013654;28;20472;-74
2023/02/09 00:28:54;;;;;;;18.93;10.13;;;0.60;28.80;;;;;;5013875;28;20493;-74
2023/02/09 00:31:19;;;;;;;16.83;10.33;;;0.70;29.30;;;;;;5013394;28;20876;-72
2023/02/09 00:33:45;;;;;;;20.85;10.50;;;0.70;29.50;;;;;;5029264;28;20948;-73
2023/02/09 00:36:12;;;;;;;17.25;10.07;;;0.60;29.70;;;;;;5013121;28;20455;-74
2023/02/09 00:38:38;;;;;;;18.98;10.70;;;0.70;29.10;;;;;;5013591;28;20459;-73
2023/02/09 00:41:05;;;;;;;16.67;10.30;;;0.70;29.60;;;;;;5013147;28;20810;-76
2023/02/09 00:43:31;;;;;;;21.27;10.52;;;0.70;27.80;;;;;;5013848;28;20388;-74
2023/02/09 00:45:56;;;;;;;18.10;9.88;;;0.70;29.50;;;;;;5014379;28;20750;-75
2023/02/09 00:48:23;;;;;;;17.70;9.90;;;0.80;28.20;;;;;;5015663;28;20489;-74
2023/02/09 00:50:52;;;;;;;20.20;10.88;;;0.70;28.60;;;;;;5017376;28;20396;-73
2023/02/09 00:53:19;;;;;;;17.77;11.02;;;0.70;30.50;;;;;;5017141;28;20381;-72
2023/02/09 00:55:45;;;;;;;22.13;10.32;;;0.70;30.50;;;;;;5014906;28;20396;-72
2023/02/09 00:58:10;;;;;;;15.90;9.35;;;0.70;29.80;;;;;;5018785;28;20400;-72
2023/02/09 01:00:36;;;;;;;18.25;10.00;;;0.70;28.90;;;;;;5039638;28;20404;-73
2023/02/09 01:03:01;;;;;;;19.30;10.20;;;0.70;28.60;;;;;;5015847;28;20400;-73
2023/02/09 01:05:27;;;;;;;17.20;10.20;;;0.80;29.80;;;;;;5013129;28;20766;-74
2023/02/09 01:07:53;;;;;;;16.40;9.73;;;0.70;29.50;;;;;;5012752;28;20424;-73
2023/02/09 01:10:18;;;;;;;17.95;10.20;;;0.80;30.10;;;;;;5012748;28;20431;-72
2023/02/09 01:12:44;;;;;;;18.40;10.38;;;0.80;27.50;;;;;;5012490;28;20878;-72
2023/02/09 01:15:10;;;;;;;18.87;10.93;;;0.80;28.80;;;;;;5012669;28;20953;-73
2023/02/09 01:17:37;;;;;;;20.75;11.40;;;0.80;29.50;;;;;;5027696;28;20739;-75
2023/02/09 01:20:03;;;;;;;18.95;10.65;;;0.80;30.00;;;;;;5012690;28;20400;-72
2023/02/09 01:22:29;;;;;;;19.73;10.20;;;0.70;29.30;;;;;;5012752;28;20477;-73
2023/02/09 01:24:54;;;;;;;16.42;10.20;;;0.60;29.70;;;;;;5012247;28;20881;-73
2023/02/09 01:27:20;;;;;;;19.05;10.60;;;0.60;28.90;;;;;;5012273;28;20869;-72
2023/02/09 01:29:45;;;;;;;17.92;10.93;;;0.60;30.50;;;;;;5012139;28;20759;-73
2023/02/09 01:32:11;;;;;;;18.80;10.57;;;0.60;29.80;;;;;;5010621;28;20404;-73
2023/02/09 01:34:37;;;;;;;17.63;10.77;;;0.60;30.30;;;;;;5012206;28;20754;-72
2023/02/09 01:37:03;;;;;;;16.65;10.55;;;0.60;29.20;;;;;;5011682;28;20391;-74
2023/02/09 01:39:28;;;;;;;21.67;10.88;;;0.60;29.50;;;;;;5012421;28;20400;-75
2023/02/09 01:41:54;;;;;;;20.93;11.13;;;0.60;29.90;;;;;;5019066;28;20389;-73
2023/02/09 01:44:20;;;;;;;18.55;11.30;;;0.50;29.90;;;;;;5021533;28;20384;-74
2023/02/09 01:46:46;;;;;;;18.13;10.53;;;0.60;30.40;;;;;;5036606;28;20452;-72
2023/02/09 01:49:16;;;;;;;21.88;11.40;;;0.50;30.00;;;;;;5017996;28;20412;-72
2023/02/09 01:51:47;;;;;;;19.27;10.75;;;0.50;32.10;;;;;;5018035;28;20381;-74
2023/02/09 01:54:17;;;;;;;22.80;10.87;;;0.50;32.30;;;;;;5018653;28;20423;-73
2023/02/09 01:56:49;;;;;;;24.15;11.95;;;0.50;30.80;;;;;;5018178;28;20389;-72
2023/02/09 01:59:15;;;;;;;19.85;11.95;;;0.40;31.90;;;;;;5015264;28;20416;-71
2023/02/09 02:01:42;;;;;;;20.02;11.57;;;0.30;31.90;;;;;;5014153;28;20396;-72
2023/02/09 02:04:07;;;;;;;21.23;12.15;;;0.40;31.50;;;;;;5011977;28;20400;-71
2023/02/09 02:06:33;;;;;;;21.00;11.80;;;0.40;32.70;;;;;;5011636;28;20750;-72
2023/02/09 02:09:03;;;;;;;20.25;11.18;;;0.40;33.50;;;;;;5011662;28;20410;-72
2023/02/09 02:11:31;;;;;;;19.17;10.93;;;0.40;32.70;;;;;;5011740;28;20388;-72
2023/02/09 02:13:57;;;;;;;18.15;11.77;;;0.40;32.90;;;;;;5011540;28;20420;-72
2023/02/09 02:16:38;;;;;;;20.35;12.20;;;0.40;32.50;;;;;;5011604;28;20384;-72
2023/02/09 02:19:37;;;;;;;18.67;12.02;;;0.40;33.20;;;;;;5011970;28;20395;-72
2023/02/09 02:22:39;;;;;;;18.80;11.40;;;0.40;32.90;;;;;;5011551;28;20384;-71
2023/02/09 02:25:23;;;;;;;21.05;12.63;;;0.30;33.20;;;;;;5011842;28;20404;-74
2023/02/09 02:28:12;;;;;;;22.33;12.00;;;0.30;33.30;;;;;;5020888;28;20392;-70
2023/02/09 02:30:57;;;;;;;24.40;13.00;;;0.30;32.80;;;;;;5028857;28;20377;-71
2023/02/09 02:33:34;;;;;;;20.48;12.52;;;0.30;33.10;;;;;;5029475;28;20380;-72
2023/02/09 02:36:09;;;;;;;20.55;12.55;;;0.30;32.80;;;;;;5026581;28;20408;-72
2023/02/09 02:38:52;;;;;;;23.38;13.10;;;0.30;33.10;;;;;;5013324;28;20392;-72
2023/02/09 02:44:27;;;;;;;22.70;12.50;;;0.30;35.10;;;;;;5011676;28;20383;-72
2023/02/09 02:46:58;;;;;;;23.63;12.30;;;0.30;32.80;;;;;;5012051;28;20381;-73
2023/02/09 02:49:38;;;;;;;21.40;11.77;;;0.30;32.80;;;;;;5015032;28;20900;-71
2023/02/09 02:52:07;;;;;;;22.25;12.90;;;0.30;33.30;;;;;;5015733;28;20438;-72
2023/02/09 02:54:48;;;;;;;20.50;12.52;;;0.20;33.10;;;;;;5015317;28;20385;-73
2023/02/09 02:57:19;;;;;;;22.63;12.80;;;0.10;33.60;;;;;;5015194;28;20428;-72
2023/02/09 02:59:54;;;;;;;23.48;13.00;;;0.10;34.90;;;;;;5015527;28;20394;-73
2023/02/09 03:02:25;;;;;;;20.75;11.63;;;0.00;34.80;;;;;;5013433;28;20391;-72
2023/02/09 03:04:55;;;;;;;23.10;13.65;;;0.10;35.80;;;;;;5014955;28;20408;-72
2023/02/09 03:07:21;;;;;;;27.10;13.25;;;0.00;35.80;;;;;;5013431;28;20384;-72
2023/02/09 03:09:56;;;;;;;24.58;13.73;;;0.00;35.10;;;;;;5014922;28;20866;-71
2023/02/09 03:12:42;;;;;;;24.60;13.25;;;0.10;36.00;;;;;;5014628;28;20933;-72
2023/02/09 03:15:35;;;;;;;24.05;13.02;;;0.00;36.10;;;;;;5015035;28;20436;-71
2023/02/09 03:18:13;;;;;;;24.40;13.30;;;0.00;34.80;;;;;;5015403;28;20858;-71
2023/02/09 03:20:48;;;;;;;22.10;12.80;;;-0.10;35.00;;;;;;5014861;28;20392;-70
2023/02/09 03:23:36;;;;;;;23.75;13.50;;;-0.10;36.40;;;;;;5014587;28;20389;-70
2023/02/09 03:26:11;;;;;;;25.35;13.77;;;-0.10;35.40;;;;;;5017113;28;20442;-72
2023/02/09 03:28:40;;;;;;;25.50;13.18;;;-0.20;36.20;;;;;;5024080;28;20492;-70
2023/02/09 03:31:07;;;;;;;20.42;12.60;;;-0.10;37.30;;;;;;5021404;28;20823;-71
2023/02/09 03:33:35;;;;;;;21.52;12.45;;;-0.20;36.30;;;;;;5015565;28;20720;-72
2023/02/09 03:36:05;;;;;;;22.23;13.07;;;-0.20;36.80;;;;;;5015237;28;20723;-72
2023/02/09 03:38:31;;;;;;;23.40;13.38;;;-0.20;36.50;;;;;;5031414;28;20754;-71
2023/02/09 03:40:57;;;;;;;23.97;13.80;;;-0.20;36.50;;;;;;5017026;28;20463;-73
2023/02/09 03:44:25;;;;;;;23.30;13.03;;;-0.30;38.10;;;;;;5021202;28;20404;-74
2023/02/09 03:46:08;;;;;;;22.63;13.20;;;-0.30;37.80;;;;;;5022922;28;20483;-73
2023/02/09 03:48:34;;;;;;;22.23;12.70;;;-0.30;37.00;;;;;;5016131;28;20408;-73
2023/02/09 03:51:00;;;;;;;28.17;14.18;;;-0.30;37.70;;;;;;5015309;28;20751;-71
2023/02/09 03:53:25;;;;;;;23.73;13.38;;;-0.30;38.10;;;;;;5014070;28;20377;-71
2023/02/09 03:55:51;;;;;;;24.73;14.07;;;-0.30;38.70;;;;;;5013914;28;20404;-73
2023/02/09 03:58:16;;;;;;;25.43;13.93;;;-0.20;38.40;;;;;;5012546;28;20411;-73
2023/02/09 04:00:42;;;;;;;25.00;13.70;;;-0.20;37.80;;;;;;5013603;28;20396;-71
2023/02/09 04:03:07;;;;;;;24.50;13.83;;;-0.30;38.00;;;;;;5014212;28;20459;-73
2023/02/09 04:05:33;;;;;;;24.90;14.25;;;-0.30;38.30;;;;;;5014510;28;20487;-72
2023/02/09 04:07:59;;;;;;;23.30;13.82;;;-0.30;38.60;;;;;;5012590;28;20404;-70
2023/02/09 04:10:24;;;;;;;28.65;14.45;;;-0.40;37.50;;;;;;5013507;28;20902;-72
2023/02/09 04:12:50;;;;;;;25.30;14.07;;;-0.30;37.50;;;;;;5013497;28;20443;-71
2023/02/09 04:15:15;;;;;;;30.10;14.90;;;-0.40;38.00;;;;;;5013741;28;20723;-73
2023/02/09 04:17:41;;;;;;;27.20;14.30;;;-0.30;38.30;;;;;;5013602;28;20765;-73
2023/02/09 04:20:07;;;;;;;24.93;13.97;;;-0.30;38.70;;;;;;5013552;28;20392;-72
2023/02/09 04:22:32;;;;;;;26.63;14.48;;;-0.30;37.70;;;;;;5013421;28;20705;-72
2023/02/09 04:24:58;;;;;;;25.20;14.40;;;-0.30;36.50;;;;;;5013335;28;20420;-70
2023/02/09 04:27:24;;;;;;;23.03;13.70;;;-0.30;37.50;;;;;;5028710;28;20554;-74
2023/02/09 04:29:49;;;;;;;23.07;13.17;;;-0.30;39.30;;;;;;5013519;28;20428;-72
2023/02/09 04:32:15;;;;;;;25.65;13.68;;;-0.40;38.50;;;;;;5012744;28;20389;-72
2023/02/09 04:34:40;;;;;;;23.65;13.82;;;-0.30;39.00;;;;;;5012878;28;20385;-72
2023/02/09 04:37:06;;;;;;;25.50;14.50;;;-0.30;38.10;;;;;;5012858;28;20819;-72
2023/02/09 04:39:31;;;;;;;24.43;13.93;;;-0.40;38.30;;;;;;5012484;28;20388;-73
2023/02/09 04:41:57;;;;;;;28.10;14.83;;;-0.40;39.00;;;;;;5012579;28;20436;-73
2023/02/09 04:44:22;;;;;;;25.23;13.97;;;-0.40;39.00;;;;;;5012759;28;20392;-72
2023/02/09 04:46:48;;;;;;;25.73;14.43;;;-0.40;38.00;;;;;;5012718;28;20404;-73
2023/02/09 04:49:13;;;;;;;29.30;14.70;;;-0.40;38.50;;;;;;5012576;28;20413;-70
2023/02/09 04:51:39;;;;;;;25.55;13.75;;;-0.40;40.60;;;;;;5012199;28;20554;-71
2023/02/09 04:54:04;;;;;;;27.60;14.73;;;-0.40;40.00;;;;;;5014022;28;20750;-73
2023/02/09 04:56:30;;;;;;;25.27;14.10;;;-0.40;39.20;;;;;;5013461;28;20884;-72
2023/02/09 05:01:39;;;;;;;26.67;14.32;;;-0.40;39.40;;;;;;5013315;28;20458;-72
2023/02/09 05:04:05;;;;;;;23.27;13.80;;;-0.40;40.10;;;;;;5013241;28;20495;-72
2023/02/09 05:06:30;;;;;;;28.93;15.33;;;-0.40;40.00;;;;;;5013056;28;20385;-73
2023/02/09 05:08:56;;;;;;;26.20;15.20;;;-0.40;39.10;;;;;;5013044;28;20441;-73
2023/02/09 05:11:22;;;;;;;30.45;15.48;;;-0.40;39.10;;;;;;5011803;28;20389;-71
2023/02/09 05:13:47;;;;;;;29.80;14.68;;;-0.50;39.40;;;;;;5012321;28;20940;-71
2023/02/09 05:16:16;;;;;;;27.27;14.60;;;-0.40;39.10;;;;;;5010984;28;20388;-71
2023/02/09 05:18:42;;;;;;;26.52;15.70;;;-0.40;39.40;;;;;;5012172;28;20402;-70
2023/02/09 05:21:07;;;;;;;27.42;15.07;;;-0.40;40.00;;;;;;5011838;28;20393;-71
2023/02/09 05:23:33;;;;;;;25.48;14.40;;;-0.40;39.10;;;;;;5010438;28;20438;-72
2023/02/09 05:25:58;;;;;;;26.60;15.10;;;-0.50;39.40;;;;;;5011989;28;20443;-72
2023/02/09 05:28:24;;;;;;;29.23;14.80;;;-0.50;40.00;;;;;;5012043;28;21039;-71
2023/02/09 05:30:52;;;;;;;31.50;15.80;;;-0.60;38.90;;;;;;5012173;28;20392;-73
2023/02/09 05:33:22;;;;;;;25.88;14.27;;;-0.60;38.40;;;;;;5012453;28;20381;-72
2023/02/09 05:35:48;;;;;;;25.00;14.63;;;-0.60;40.00;;;;;;5013065;28;20384;-72
2023/02/09 05:38:14;;;;;;;28.83;16.08;;;-0.50;38.70;;;;;;5013386;28;20400;-71
2023/02/09 05:40:39;;;;;;;29.43;15.97;;;-0.60;39.40;;;;;;5013185;28;20389;-71
2023/02/09 05:43:05;;;;;;;32.50;15.70;;;-0.60;40.30;;;;;;5012693;28;20385;-72
2023/02/09 05:45:31;;;;;;;25.90;15.18;;;-0.60;40.50;;;;;;5014316;28;20762;-70
2023/02/09 05:47:56;;;;;;;31.05;16.55;;;-0.50;41.70;;;;;;5011549;28;20746;-70
2023/02/09 05:50:22;;;;;;;25.57;15.60;;;-0.50;39.90;;;;;;5011436;28;20389;-71
2023/02/09 05:52:47;;;;;;;29.40;15.50;;;-0.50;39.80;;;;;;5011455;28;20388;-71
2023/02/09 05:55:13;;;;;;;28.30;16.43;;;-0.40;39.50;;;;;;5010818;28;20870;-73
2023/02/09 05:57:38;;;;;;;29.75;16.52;;;-0.40;39.50;;;;;;5014571;28;20400;-70
2023/02/09 06:00:05;;;;;;;27.60;16.27;;;-0.40;39.00;;;;;;5027658;28;20396;-72
2023/02/09 06:02:31;;;;;;;29.10;15.80;;;-0.50;39.90;;;;;;5017030;28;20711;-71
2023/02/09 06:04:57;;;;;;;29.45;15.95;;;-0.40;39.50;;;;;;5026661;28;20467;-71
2023/02/09 06:07:22;;;;;;;28.70;15.75;;;-0.40;39.40;;;;;;5011267;28;20834;-71
2023/02/09 06:09:48;;;;;;;33.93;16.77;;;-0.50;40.80;;;;;;5011185;28;20971;-72
2023/02/09 06:12:13;;;;;;;27.83;16.37;;;-0.50;42.30;;;;;;5011117;28;20452;-72
2023/02/09 06:14:39;;;;;;;27.97;15.67;;;-0.50;41.20;;;;;;5010193;28;20963;-71
2023/02/09 06:17:04;;;;;;;33.70;17.27;;;-0.60;40.70;;;;;;5023339;28;20419;-73
2023/02/09 06:19:30;;;;;;;30.35;16.50;;;-0.40;40.40;;;;;;5021260;28;20488;-72
2023/02/09 06:21:56;;;;;;;28.83;17.15;;;-0.50;40.90;;;;;;5021785;28;20397;-71
2023/02/09 06:24:21;;;;;;;34.73;17.13;;;-0.60;40.10;;;;;;5015068;28;20396;-73
2023/02/09 06:26:47;;;;;;;28.27;16.60;;;-0.50;41.90;;;;;;5012868;28;20546;-71
2023/02/09 06:29:12;;;;;;;36.67;17.03;;;-0.50;40.10;;;;;;5011302;28;20404;-72
2023/02/09 06:31:40;;;;;;;32.58;16.95;;;-0.50;39.60;;;;;;5011438;28;20720;-72
2023/02/09 06:34:06;;;;;;;28.67;16.90;;;-0.60;40.40;;;;;;5011922;28;20404;-72
2023/02/09 06:36:32;;;;;;;31.00;16.52;;;-0.60;40.00;;;;;;5012366;28;21068;-71
2023/02/09 06:38:58;;;;;;;31.93;17.77;;;-0.60;40.80;;;;;;5012963;28;20455;-72
2023/02/09 06:41:23;;;;;;;33.20;17.00;;;-0.60;39.90;;;;;;5018308;28;20423;-74
2023/02/09 06:43:49;;;;;;;30.50;17.52;;;-0.60;40.50;;;;;;5017788;28;20415;-75
2023/02/09 06:46:14;;;;;;;35.70;18.23;;;-0.60;41.20;;;;;;5016004;28;20470;-74
2023/02/09 06:48:40;;;;;;;33.23;17.30;;;-0.60;40.70;;;;;;5014078;28;20527;-72
2023/02/09 06:51:11;;;;;;;37.17;18.00;;;-0.60;41.30;;;;;;5011769;28;20385;-71
2023/02/09 06:53:37;;;;;;;35.08;18.70;;;-0.70;42.80;;;;;;5011665;28;20384;-71
2023/02/09 06:56:04;;;;;;;34.30;18.45;;;-0.70;43.70;;;;;;5011869;28;20388;-71
2023/02/09 06:58:29;;;;;;;35.08;18.35;;;-0.60;44.20;;;;;;5010441;28;20763;-73
2023/02/09 07:00:59;;;;;;;34.57;17.60;;;-0.50;41.20;;;;;;5011172;28;20914;-74
2023/02/09 07:03:25;;;;;;;30.33;17.33;;;-0.50;42.20;;;;;;5011550;28;20385;-73
2023/02/09 07:05:50;;;;;;;37.13;17.80;;;-0.50;42.70;;;;;;5011428;28;20395;-72
2023/02/09 07:08:16;;;;;;;43.83;20.80;;;-0.50;41.20;;;;;;5010822;28;20496;-71
2023/02/09 07:10:42;;;;;;;30.00;16.90;;;-0.50;41.60;;;;;;5009718;28;20455;-71
2023/02/09 07:13:07;;;;;;;33.42;18.90;;;-0.50;41.10;;;;;;5012153;28;20472;-72
2023/02/09 07:15:33;;;;;;;29.25;17.30;;;-0.40;39.60;;;;;;5025901;28;20469;-72
2023/02/09 07:17:58;;;;;;;33.80;18.50;;;-0.40;40.50;;;;;;5010465;28;20460;-71
2023/02/09 07:20:24;;;;;;;28.50;16.87;;;-0.40;39.80;;;;;;5011025;28;20393;-72
2023/02/09 07:22:49;;;;;;;29.90;17.90;;;-0.30;40.50;;;;;;5010347;28;20384;-72
2023/02/09 07:25:15;;;;;;;32.40;18.20;;;-0.20;38.80;;;;;;5010796;28;20388;-72
2023/02/09 07:27:44;;;;;;;33.88;18.35;;;-0.20;39.70;;;;;;5010741;28;20804;-72
2023/02/09 07:30:10;;;;;;;34.65;18.35;;;-0.10;38.30;;;;;;5010521;28;21144;-72
2023/02/09 07:32:38;;;;;;;32.92;18.27;;;-0.10;38.50;;;;;;5010590;28;20391;-71
2023/02/09 07:35:04;;;;;;;34.70;18.50;;;-0.10;38.90;;;;;;5018171;28;20797;-71
2023/02/09 07:37:29;;;;;;;35.60;18.40;;;0.00;39.60;;;;;;5019889;28;20473;-71
2023/02/09 07:39:55;;;;;;;37.10;18.20;;;0.10;38.20;;;;;;5017634;28;20747;-70
2023/02/09 07:42:20;;;;;;;30.97;18.27;;;0.10;38.10;;;;;;5013936;28;20451;-71
2023/02/09 07:44:46;;;;;;;33.83;18.70;;;0.10;38.50;;;;;;5014193;28;20385;-71
2023/02/09 07:47:11;;;;;;;33.53;18.05;;;0.30;38.00;;;;;;5014256;28;20396;-71
2023/02/09 07:49:37;;;;;;;32.90;19.00;;;0.30;36.50;;;;;;5013769;28;20404;-72
2023/02/09 07:52:03;;;;;;;33.15;18.73;;;0.30;36.80;;;;;;5014146;28;20396;-74
2023/02/09 07:54:29;;;;;;;33.17;19.30;;;0.30;36.10;;;;;;5014553;28;20385;-73
2023/02/09 07:56:55;;;;;;;32.13;19.02;;;0.40;35.90;;;;;;5014058;28;20392;-73
2023/02/09 07:59:20;;;;;;;32.85;18.00;;;0.50;35.40;;;;;;5014553;28;20407;-72
2023/02/09 08:01:46;;;;;;;34.55;19.02;;;0.60;36.30;;;;;;5013637;28;20388;-72
2023/02/09 08:04:11;;;;;;;32.70;19.23;;;0.70;35.40;;;;;;5014083;28;20819;-70
2023/02/09 08:06:43;;;;;;;36.30;19.00;;;0.70;34.40;;;;;;5013964;28;20439;-71
2023/02/09 08:09:12;;;;;;;36.50;19.80;;;0.70;34.40;;;;;;5014172;28;20506;-71
2023/02/09 08:11:46;;;;;;;38.38;20.75;;;0.80;34.90;;;;;;5014337;28;20381;-71
2023/02/09 08:14:38;;;;;;;33.45;19.52;;;0.90;34.80;;;;;;5014129;28;20377;-72
2023/02/09 08:17:21;;;;;;;37.72;18.80;;;0.90;34.20;;;;;;5012928;28;20392;-71
2023/02/09 08:19:59;;;;;;;38.07;20.10;;;1.10;32.60;;;;;;5013845;28;20393;-72
2023/02/09 08:22:28;;;;;;;37.25;18.98;;;1.20;32.50;;;;;;5015581;28;20769;-72
2023/02/09 08:24:53;;;;;;;33.83;18.75;;;1.20;31.60;;;;;;5037238;28;20809;-71
2023/02/09 08:27:19;;;;;;;36.70;18.98;;;1.30;30.40;;;;;;5021805;28;20389;-71
2023/02/09 08:29:45;;;;;;;35.63;18.40;;;1.40;29.70;;;;;;5017635;28;20417;-71
2023/02/09 08:32:10;;;;;;;34.88;18.45;;;1.50;29.90;;;;;;5017098;28;20393;-71
2023/02/09 08:34:36;;;;;;;32.00;19.33;;;1.60;28.30;;;;;;5017004;28;20381;-72
2023/02/09 08:37:01;;;;;;;38.10;20.17;;;1.60;27.60;;;;;;5016643;28;20381;-71
2023/02/09 08:39:27;;;;;;;34.47;19.40;;;1.70;28.70;;;;;;5015313;28;20385;-71
2023/02/09 08:41:52;;;;;;;35.60;20.00;;;1.60;28.40;;;;;;5013646;28;20727;-72
2023/02/09 08:44:18;;;;;;;36.23;20.60;;;1.70;28.30;;;;;;5013842;28;20389;-71
2023/02/09 08:46:43;;;;;;;34.40;20.37;;;1.80;28.20;;;;;;5014702;28;20862;-72
2023/02/09 08:49:09;;;;;;;33.70;19.17;;;1.90;28.00;;;;;;5020160;28;20428;-71
2023/02/09 08:51:35;;;;;;;36.13;20.67;;;1.90;28.30;;;;;;5025255;28;20384;-72
2023/02/09 08:54:00;;;;;;;37.97;20.33;;;2.00;27.80;;;;;;5018438;28;20443;-72
2023/02/09 08:56:26;;;;;;;34.35;19.52;;;2.00;27.40;;;;;;5018618;28;20400;-71
2023/02/09 08:58:51;;;;;;;34.17;20.10;;;2.10;27.10;;;;;;5012447;28;20829;-71
2023/02/09 09:01:17;;;;;;;35.13;21.07;;;2.20;27.50;;;;;;5012571;28;20587;-72
2023/02/09 09:03:43;;;;;;;38.53;20.23;;;2.30;27.60;;;;;;5012590;28;20392;-71
2023/02/09 09:06:10;;;;;;;39.07;22.17;;;2.30;27.60;;;;;;5012394;28;20435;-71
2023/02/09 09:08:38;;;;;;;35.45;20.40;;;2.40;26.30;;;;;;5012061;28;20409;-71
2023/02/09 09:11:11;;;;;;;38.38;19.98;;;2.40;28.00;;;;;;5012198;28;20862;-70
2023/02/09 09:13:40;;;;;;;41.83;20.60;;;2.60;26.70;;;;;;5012207;28;20427;-72
2023/02/09 09:16:11;;;;;;;37.15;21.63;;;2.60;27.40;;;;;;5012994;28;20982;-71
2023/02/09 09:18:37;;;;;;;40.97;21.35;;;2.60;25.40;;;;;;5013133;28;20396;-72
2023/02/09 09:21:03;;;;;;;37.30;22.17;;;2.70;25.50;;;;;;5013325;28;20494;-72
2023/02/09 09:23:28;;;;;;;35.77;21.00;;;2.60;25.30;;;;;;5014280;28;20866;-72
2023/02/09 09:26:00;;;;;;;43.10;21.83;;;2.60;25.60;;;;;;5013847;28;20388;-71
2023/02/09 09:28:26;;;;;;;36.90;20.90;;;2.70;25.80;;;;;;5013009;28;20419;-71
2023/02/09 09:30:51;;;;;;;39.43;21.77;;;2.80;25.20;;;;;;5014438;28;20421;-71
2023/02/09 09:33:17;;;;;;;42.27;22.10;;;2.90;24.30;;;;;;5017897;28;20413;-72
2023/02/09 09:35:42;;;;;;;38.60;21.20;;;3.00;24.50;;;;;;5014896;28;20388;-71
2023/02/09 09:38:08;;;;;;;35.67;20.43;;;3.00;24.20;;;;;;5013563;28;20393;-72
2023/02/09 09:40:36;;;;;;;41.43;21.10;;;3.00;25.00;;;;;;5012544;28;20396;-70
2023/02/09 09:43:22;;;;;;;35.03;21.33;;;3.00;24.50;;;;;;5011808;28;20391;-72
2023/02/09 09:45:48;;;;;;;40.08;22.00;;;3.00;24.90;;;;;;5011955;28;20878;-72
2023/02/09 09:48:23;;;;;;;40.80;21.20;;;3.20;26.00;;;;;;5011778;28;20470;-73
2023/02/09 09:50:53;;;;;;;38.78;21.40;;;3.30;25.00;;;;;;5011895;28;20888;-71
2023/02/09 09:53:32;;;;;;;45.72;21.55;;;3.20;23.70;;;;;;5011993;28;20381;-71
2023/02/09 09:56:04;;;;;;;36.35;21.25;;;3.30;23.70;;;;;;5026666;28;20392;-73
2023/02/09 09:58:31;;;;;;;40.92;21.25;;;3.40;23.80;;;;;;5011238;28;20404;-73
2023/02/09 10:00:57;;;;;;;39.85;21.90;;;3.70;23.90;;;;;;5011676;28;20389;-71
2023/02/09 10:03:23;;;;;;;36.90;20.88;;;3.70;23.60;;;;;;5011240;28;20385;-70
2023/02/09 10:05:52;;;;;;;37.60;21.50;;;3.80;23.40;;;;;;5011351;28;20399;-71
2023/02/09 10:08:22;;;;;;;38.92;21.70;;;3.80;22.20;;;;;;5011849;28;20431;-73
2023/02/09 10:11:05;;;;;;;46.63;22.02;;;3.90;22.60;;;;;;5012214;28;20446;-72
2023/02/09 10:13:43;;;;;;;39.55;22.10;;;3.90;23.20;;;;;;5011224;28;20373;-72
2023/02/09 10:16:18;;;;;;;43.78;21.60;;;4.10;22.50;;;;;;5011128;28;20814;-70
2023/02/09 10:18:48;;;;;;;37.00;20.77;;;4.10;23.80;;;;;;5011100;28;20389;-72
2023/02/09 10:21:16;;;;;;;39.92;22.02;;;4.10;22.90;;;;;;5010915;28;20391;-71
2023/02/09 10:24:13;;;;;;;40.17;21.42;;;4.30;22.30;;;;;;5011096;28;20762;-71
2023/02/09 10:26:41;;;;;;;36.30;21.52;;;4.30;21.90;;;;;;5011246;28;20392;-71
2023/02/09 10:29:10;;;;;;;39.83;20.58;;;4.30;21.40;;;;;;5011366;28;20416;-70
2023/02/09 10:31:45;;;;;;;35.97;19.90;;;4.50;19.70;;;;;;5011026;28;20393;-70
2023/02/09 10:34:19;;;;;;;38.80;20.27;;;4.60;19.60;;;;;;5011357;28;20801;-70
2023/02/09 10:37:04;;;;;;;38.03;21.65;;;4.60;19.20;;;;;;5011046;28;20420;-71
2023/02/09 10:39:32;;;;;;;40.97;21.70;;;4.60;20.00;;;;;;5011124;28;20395;-72
2023/02/09 10:42:18;;;;;;;37.87;20.80;;;4.60;20.10;;;;;;5010715;28;20426;-71
2023/02/09 10:44:50;;;;;;;38.72;21.13;;;4.70;19.70;;;;;;5011162;28;20377;-71
2023/02/09 10:47:18;;;;;;;39.22;21.08;;;4.60;19.30;;;;;;5011119;28;20385;-71
2023/02/09 10:49:51;;;;;;;36.13;20.90;;;4.70;22.40;;;;;;5010659;28;20862;-71
2023/02/09 10:52:19;;;;;;;42.47;21.27;;;4.70;19.60;;;;;;5010929;28;20402;-71
2023/02/09 10:54:55;;;;;;;42.13;21.17;;;4.80;19.60;;;;;;5011187;28;20732;-71
2023/02/09 10:57:23;;;;;;;35.05;20.45;;;4.90;19.60;;;;;;5013305;28;20389;-70
2023/02/09 10:59:57;;;;;;;38.10;20.15;;;5.00;18.90;;;;;;5016915;28;20414;-71
2023/02/09 11:02:40;;;;;;;39.37;20.87;;;4.80;19.00;;;;;;5011506;28;20472;-73
2023/02/09 11:05:20;;;;;;;36.78;20.02;;;4.90;18.70;;;;;;5010836;28;20873;-72
2023/02/09 11:08:17;;;;;;;35.60;19.65;;;5.00;18.50;;;;;;5010944;28;20428;-71
2023/02/09 11:10:57;;;;;;;37.85;21.08;;;5.10;18.60;;;;;;5013911;28;20708;-71
2023/02/09 11:13:25;;;;;;;39.53;20.67;;;5.20;19.20;;;;;;5015010;28;20471;-72
2023/02/09 11:16:36;;;;;;;38.35;20.77;;;5.30;18.60;;;;;;5014612;28;20379;-72
2023/02/09 11:19:24;;;;;;;37.15;19.05;;;5.30;18.40;;;;;;5015361;28;20764;-71
2023/02/09 11:22:23;;;;;;;32.55;18.60;;;5.60;17.70;;;;;;5018843;28;20395;-71
2023/02/09 11:25:17;;;;;;;33.20;17.83;;;5.60;17.10;;;;;;5023127;28;20379;-70
2023/02/09 11:28:17;;;;;;;33.03;17.38;;;5.60;16.20;;;;;;5017481;28;20808;-73
2023/02/09 11:31:03;;;;;;;33.83;17.67;;;5.70;15.80;;;;;;5015804;28;20857;-71
2023/02/09 11:33:50;;;;;;;31.13;17.98;;;5.80;15.50;;;;;;5015869;28;20408;-71
2023/02/09 11:36:30;;;;;;;34.97;18.48;;;5.80;16.10;;;;;;5015373;28;20523;-72
2023/02/09 11:39:03;;;;;;;31.90;18.80;;;5.80;15.90;;;;;;5016318;28;20402;-71
2023/02/09 11:44:29;;;;;;;32.83;18.90;;;5.70;15.80;;;;;;5014528;28;20442;-71
2023/02/09 11:47:09;;;;;;;31.17;17.60;;;5.80;15.90;;;;;;5014377;28;20391;-70
2023/02/09 11:49:46;;;;;;;33.70;18.90;;;5.90;16.00;;;;;;5013881;28;20764;-72
2023/02/09 11:52:28;;;;;;;33.95;18.50;;;6.10;15.50;;;;;;5013846;28;20721;-71
2023/02/09 11:55:00;;;;;;;32.30;18.80;;;6.00;15.60;;;;;;5014470;28;20583;-71
2023/02/09 11:57:41;;;;;;;37.97;20.10;;;6.10;15.60;;;;;;5014304;28;20869;-70
2023/02/09 12:00:16;;;;;;;35.83;19.08;;;6.30;15.70;;;;;;5013862;28;20391;-72
2023/02/09 12:02:56;;;;;;;37.40;20.20;;;6.30;15.30;;;;;;5014172;28;20406;-72
2023/02/09 12:05:22;;;;;;;34.00;19.00;;;6.40;16.10;;;;;;5013985;28;20383;-72
2023/02/09 12:08:21;;;;;;;33.90;19.40;;;6.20;16.00;;;;;;5014310;28;20487;-72
2023/02/09 12:11:18;;;;;;;32.10;18.63;;;6.30;16.10;;;;;;5013456;28;20873;-71
2023/02/09 12:14:35;;;;;;;35.38;18.85;;;6.20;16.00;;;;;;5014070;28;20461;-72
2023/02/09 12:17:15;;;;;;;39.80;20.05;;;6.40;16.00;;;;;;4953392;28;20419;-72
2023/02/09 12:19:44;;;;;;;32.92;18.08;;;6.40;16.20;;;;;;4953719;29;20391;-72
2023/02/09 12:22:31;;;;;;;31.85;17.55;;;6.60;15.70;;;;;;4988297;28;20878;-72
2023/02/09 12:25:17;;;;;;;32.25;18.30;;;6.50;15.50;;;;;;5014245;28;20383;-72
2023/02/09 12:28:09;;;;;;;34.38;17.88;;;6.40;15.40;;;;;;5013758;28;20390;-72
2023/02/09 12:30:40;;;;;;;29.10;17.52;;;6.60;15.10;;;;;;5014294;28;20377;-72
2023/02/09 12:33:21;;;;;;;31.67;18.60;;;6.70;14.90;;;;;;5014116;28;20423;-71
2023/02/09 12:36:02;;;;;;;28.95;17.48;;;6.80;14.20;;;;;;5013120;28;20415;-71
2023/02/09 12:38:58;;;;;;;31.27;17.98;;;6.80;14.20;;;;;;5012946;28;20384;-71
2023/02/09 12:41:44;;;;;;;31.05;17.15;;;6.80;14.00;;;;;;5013519;28;20379;-71
2023/02/09 12:44:09;;;;;;;30.10;16.40;;;6.90;13.70;;;;;;5012826;28;20431;-71
2023/02/09 12:46:47;;;;;;;30.30;17.60;;;7.00;13.60;;;;;;5012786;28;20765;-72
2023/02/09 12:49:12;;;;;;;25.85;16.20;;;7.00;14.10;;;;;;5012705;28;20427;-72
2023/02/09 12:51:49;;;;;;;29.03;16.30;;;7.00;13.80;;;;;;5012916;28;20385;-71
2023/02/09 12:54:44;;;;;;;27.80;15.35;;;7.00;13.30;;;;;;5012841;28;20464;-70
2023/02/09 12:57:15;;;;;;;26.40;16.00;;;7.10;13.50;;;;;;5014609;28;20385;-72
2023/02/09 12:59:51;;;;;;;28.10;14.90;;;7.40;13.00;;;;;;5014517;28;20770;-71
2023/02/09 13:02:37;;;;;;;29.00;14.48;;;7.50;12.90;;;;;;5013367;28;20427;-72